createdAt,value
2018-07-08T00:00:49.032Z,0.00
2018-07-08T00:01:49.034Z,0.00
2018-07-08T00:02:49.041Z,0.00
2018-07-08T00:03:49.046Z,0.00
2018-07-08T00:04:49.053Z,0.00
2018-07-08T00:05:49.062Z,0.00
2018-07-08T00:06:49.059Z,0.00
2018-07-08T00:07:49.062Z,0.00
2018-07-08T00:08:49.071Z,0.00
2018-07-08T00:09:49.090Z,0.00
2018-07-08T00:10:49.074Z,0.00
2018-07-08T00:11:49.073Z,0.00
2018-07-08T00:12:49.076Z,0.00
2018-07-08T00:13:49.086Z,0.00
2018-07-08T00:14:49.089Z,0.00
2018-07-08T00:15:49.093Z,0.00
2018-07-08T00:16:49.099Z,0.00
2018-07-08T00:19:19.204Z,0.00
2018-07-08T00:20:10.131Z,0.00
2018-07-08T00:21:10.140Z,0.00
2018-07-08T00:22:10.145Z,0.00
2018-07-08T00:23:10.156Z,0.00
2018-07-08T00:24:10.151Z,0.00
2018-07-08T00:25:10.162Z,0.00
2018-07-08T00:26:10.169Z,0.00
2018-07-08T00:27:10.162Z,0.00
2018-07-08T00:28:10.165Z,0.00
2018-07-08T00:29:10.205Z,0.00
2018-07-08T00:30:10.171Z,0.00
2018-07-08T00:31:10.182Z,0.00
2018-07-08T00:32:10.196Z,0.00
2018-07-08T00:33:10.194Z,0.00
2018-07-08T00:34:10.188Z,0.00
2018-07-08T00:35:10.198Z,0.00
2018-07-08T00:36:10.201Z,0.00
2018-07-08T00:37:10.205Z,0.00
2018-07-08T00:38:10.213Z,0.00
2018-07-08T00:39:10.216Z,0.00
2018-07-08T00:40:10.219Z,0.00
2018-07-08T00:41:10.230Z,0.00
2018-07-08T00:42:10.225Z,0.00
2018-07-08T00:43:10.232Z,0.00
2018-07-08T00:44:10.233Z,0.00
2018-07-08T00:45:10.243Z,0.00
2018-07-08T00:46:10.242Z,0.00
2018-07-08T00:47:10.239Z,0.00
2018-07-08T00:48:10.251Z,0.00
2018-07-08T00:49:10.254Z,0.00
2018-07-08T00:50:10.258Z,0.00
2018-07-08T00:51:10.256Z,0.00
2018-07-08T00:52:10.272Z,0.00
2018-07-08T00:53:10.274Z,0.00
2018-07-08T00:54:10.274Z,0.00
2018-07-08T00:55:10.272Z,0.00
2018-07-08T00:56:10.276Z,0.00
2018-07-08T00:57:10.281Z,0.00
2018-07-08T00:58:10.285Z,0.00
2018-07-08T00:59:10.290Z,0.00
2018-07-08T01:00:10.297Z,0.00
2018-07-08T01:01:10.302Z,0.00
2018-07-08T01:02:10.303Z,0.00
2018-07-08T01:03:10.308Z,0.00
2018-07-08T01:04:10.309Z,0.00
2018-07-08T01:05:10.321Z,0.00
2018-07-08T01:06:10.316Z,0.00
2018-07-08T01:07:10.325Z,0.00
2018-07-08T01:08:10.327Z,0.00
2018-07-08T01:09:10.328Z,0.00
2018-07-08T01:10:10.337Z,0.00
2018-07-08T01:11:10.341Z,0.00
2018-07-08T01:12:10.344Z,0.00
2018-07-08T01:13:10.352Z,0.00
2018-07-08T01:14:10.354Z,0.00
2018-07-08T01:15:10.357Z,0.00
2018-07-08T01:16:10.358Z,0.00
2018-07-08T01:17:10.355Z,0.00
2018-07-08T01:18:10.368Z,0.00
2018-07-08T01:19:10.373Z,0.00
2018-07-08T01:20:10.372Z,0.00
2018-07-08T01:21:10.376Z,0.00
2018-07-08T01:22:10.381Z,0.00
2018-07-08T01:23:10.388Z,0.00
2018-07-08T01:24:10.388Z,0.00
2018-07-08T01:25:10.395Z,0.00
2018-07-08T01:26:10.392Z,0.00
2018-07-08T01:27:10.396Z,0.00
2018-07-08T01:28:10.401Z,0.00
2018-07-08T01:29:10.404Z,0.00
2018-07-08T01:30:10.418Z,0.00
2018-07-08T01:31:10.425Z,0.00
2018-07-08T01:32:10.416Z,0.00
2018-07-08T01:33:10.431Z,0.00
2018-07-08T01:34:10.429Z,0.00
2018-07-08T01:35:10.434Z,0.00
2018-07-08T01:36:10.431Z,0.00
2018-07-08T01:37:10.434Z,0.00
2018-07-08T01:38:10.445Z,0.00
2018-07-08T01:39:10.445Z,0.00
2018-07-08T01:40:10.447Z,0.00
2018-07-08T01:41:10.450Z,0.00
2018-07-08T01:42:10.457Z,0.00
2018-07-08T01:43:10.471Z,0.00
2018-07-08T01:44:10.457Z,0.00
2018-07-08T01:45:10.463Z,0.00
2018-07-08T01:46:10.469Z,0.00
2018-07-08T01:47:10.472Z,0.00
2018-07-08T01:48:10.478Z,0.00
2018-07-08T01:49:10.480Z,0.00
2018-07-08T01:50:10.483Z,0.00
2018-07-08T01:51:10.484Z,0.00
2018-07-08T01:52:10.489Z,0.00
2018-07-08T01:53:10.490Z,0.00
2018-07-08T01:54:10.500Z,0.00
2018-07-08T01:55:10.503Z,0.00
2018-07-08T01:56:10.505Z,0.00
2018-07-08T01:57:10.502Z,0.00
2018-07-08T01:58:10.506Z,0.00
2018-07-08T01:59:10.513Z,0.00
2018-07-08T02:00:19.145Z,0.00
2018-07-08T02:02:03.934Z,0.00
2018-07-08T02:03:03.921Z,0.00
2018-07-08T02:04:03.925Z,0.00
2018-07-08T02:05:03.932Z,0.00
2018-07-08T02:06:03.929Z,0.00
2018-07-08T02:07:04.017Z,0.00
2018-07-08T02:08:03.941Z,0.00
2018-07-08T02:09:03.947Z,0.00
2018-07-08T02:10:03.947Z,0.00
2018-07-08T02:11:03.947Z,0.00
2018-07-08T02:12:03.953Z,0.00
2018-07-08T02:13:03.957Z,0.00
2018-07-08T02:14:03.957Z,0.00
2018-07-08T02:15:03.962Z,0.00
2018-07-08T02:16:03.964Z,0.00
2018-07-08T02:17:03.972Z,0.00
2018-07-08T02:18:03.973Z,0.00
2018-07-08T02:19:03.973Z,0.00
2018-07-08T02:20:03.985Z,0.00
2018-07-08T02:21:04.002Z,0.00
2018-07-08T02:22:03.983Z,0.00
2018-07-08T02:23:03.991Z,0.00
2018-07-08T02:24:12.621Z,0.00
2018-07-08T02:25:57.403Z,0.00
2018-07-08T02:26:57.393Z,0.00
2018-07-08T02:27:57.396Z,0.00
2018-07-08T02:28:57.398Z,0.00
2018-07-08T02:29:57.402Z,0.00
2018-07-08T02:30:57.406Z,0.00
2018-07-08T02:31:57.407Z,0.00
2018-07-08T02:32:57.415Z,0.00
2018-07-08T02:33:57.412Z,0.00
2018-07-08T02:34:57.416Z,0.00
2018-07-08T02:35:57.426Z,0.00
2018-07-08T02:36:57.421Z,0.00
2018-07-08T02:37:57.430Z,0.00
2018-07-08T02:38:57.429Z,0.00
2018-07-08T02:39:57.434Z,0.00
2018-07-08T02:40:57.435Z,0.00
2018-07-08T02:41:57.443Z,0.00
2018-07-08T02:42:57.450Z,0.00
2018-07-08T02:43:57.442Z,0.00
2018-07-08T02:44:57.448Z,0.00
2018-07-08T02:45:57.451Z,0.00
2018-07-08T02:46:57.455Z,0.00
2018-07-08T02:47:57.453Z,0.00
2018-07-08T02:48:57.473Z,0.00
2018-07-08T02:49:57.480Z,0.00
2018-07-08T02:50:57.483Z,0.00
2018-07-08T02:51:57.467Z,0.00
2018-07-08T02:52:57.476Z,0.00
2018-07-08T02:53:57.476Z,0.00
2018-07-08T02:54:57.483Z,0.00
2018-07-08T02:55:57.488Z,0.00
2018-07-08T02:56:57.492Z,4.00
2018-07-08T02:57:57.488Z,4.00
2018-07-08T02:58:57.489Z,4.00
2018-07-08T03:18:22.520Z,16.00
2018-07-08T03:19:22.500Z,20.00
2018-07-08T03:20:22.500Z,20.00
2018-07-08T03:21:22.498Z,24.00
2018-07-08T03:22:22.493Z,28.00
2018-07-08T03:23:22.504Z,28.00
2018-07-08T03:24:22.492Z,32.00
2018-07-08T03:25:22.497Z,36.00
2018-07-08T03:26:22.496Z,40.00
2018-07-08T03:27:22.498Z,40.00
2018-07-08T03:28:22.500Z,48.00
2018-07-08T03:29:22.503Z,48.00
2018-07-08T03:30:22.502Z,52.00
2018-07-08T03:31:22.506Z,56.00
2018-07-08T03:32:22.504Z,64.00
2018-07-08T03:33:22.522Z,68.00
2018-07-08T03:34:22.508Z,72.00
2018-07-08T03:35:22.516Z,84.00
2018-07-08T03:36:22.522Z,92.00
2018-07-08T03:37:22.513Z,104.00
2018-07-08T03:38:22.514Z,112.00
2018-07-08T03:39:22.514Z,124.00
2018-07-08T03:40:22.526Z,136.00
2018-07-08T03:41:22.522Z,152.00
2018-07-08T03:42:22.539Z,168.00
2018-07-08T03:43:22.528Z,188.00
2018-07-08T03:44:22.529Z,204.00
2018-07-08T03:45:22.529Z,224.00
2018-07-08T03:46:22.532Z,244.00
2018-07-08T03:47:22.540Z,256.00
2018-07-08T03:48:22.536Z,264.00
2018-07-08T03:49:22.538Z,272.00
2018-07-08T03:50:22.547Z,284.00
2018-07-08T03:51:22.548Z,300.00
2018-07-08T03:52:22.544Z,320.00
2018-07-08T03:53:22.560Z,348.00
2018-07-08T03:54:22.557Z,376.00
2018-07-08T03:55:22.588Z,424.00
2018-07-08T03:56:22.556Z,468.00
2018-07-08T03:57:22.563Z,504.00
2018-07-08T03:58:22.570Z,548.00
2018-07-08T03:59:22.561Z,596.00
2018-07-08T04:00:22.569Z,652.00
2018-07-08T04:01:22.571Z,704.00
2018-07-08T04:02:22.570Z,752.00
2018-07-08T04:03:22.570Z,816.00
2018-07-08T04:04:22.582Z,868.00
2018-07-08T04:05:22.579Z,916.00
2018-07-08T04:06:22.582Z,968.00
2018-07-08T04:07:22.585Z,1012.00
2018-07-08T04:08:22.591Z,1048.00
2018-07-08T04:09:22.583Z,1088.00
2018-07-08T04:10:22.596Z,1128.00
2018-07-08T04:11:22.593Z,1164.00
2018-07-08T04:12:22.598Z,1204.00
2018-07-08T04:13:22.707Z,1256.00
2018-07-08T04:14:22.601Z,1320.00
2018-07-08T04:15:22.624Z,1372.00
2018-07-08T04:16:22.608Z,1460.00
2018-07-08T04:17:22.611Z,1548.00
2018-07-08T04:18:22.613Z,1640.00
2018-07-08T04:19:22.620Z,1732.00
2018-07-08T04:20:22.617Z,1800.00
2018-07-08T04:21:22.618Z,1876.00
2018-07-08T04:22:22.624Z,1916.00
2018-07-08T04:23:22.623Z,2028.00
2018-07-08T04:24:22.628Z,2188.00
2018-07-08T04:25:22.634Z,2268.00
2018-07-08T04:26:22.636Z,2352.00
2018-07-08T04:27:22.632Z,2396.00
2018-07-08T04:28:31.269Z,2672.00
2018-07-08T04:30:16.068Z,2708.00
2018-07-08T04:31:16.053Z,2816.00
2018-07-08T04:32:16.039Z,2848.00
2018-07-08T04:33:16.046Z,3080.00
2018-07-08T04:34:16.050Z,3236.00
2018-07-08T04:35:16.048Z,3376.00
2018-07-08T04:36:16.050Z,3608.00
2018-07-08T04:37:16.054Z,3892.00
2018-07-08T04:38:16.060Z,4412.00
2018-07-08T04:39:16.064Z,8244.00
2018-07-08T04:40:16.068Z,14304.00
2018-07-08T04:41:16.151Z,17408.00
2018-07-08T04:42:16.076Z,19424.00
2018-07-08T04:43:16.079Z,26752.00
2018-07-08T04:44:16.082Z,31008.00
2018-07-08T04:45:16.084Z,34304.00
2018-07-08T04:46:16.090Z,35648.00
2018-07-08T04:47:16.102Z,34336.00
2018-07-08T04:48:16.097Z,34496.00
2018-07-08T04:49:16.177Z,36160.00
2018-07-08T04:50:16.118Z,37632.00
2018-07-08T04:51:16.125Z,38400.00
2018-07-08T04:52:16.135Z,42656.00
2018-07-08T04:53:16.141Z,41440.00
2018-07-08T04:54:16.183Z,41280.00
2018-07-08T04:55:16.156Z,42720.00
2018-07-08T04:56:16.172Z,45280.00
2018-07-08T04:57:16.175Z,45952.00
2018-07-08T04:58:16.189Z,49088.00
2018-07-08T04:59:16.197Z,46720.00
2018-07-08T05:00:16.209Z,45824.00
2018-07-08T05:01:16.219Z,48320.00
2018-07-08T05:02:16.229Z,54240.00
2018-07-08T05:03:16.248Z,57600.00
2018-07-08T05:04:16.266Z,55168.00
2018-07-08T05:05:16.280Z,51040.00
2018-07-08T05:06:16.286Z,51328.00
2018-07-08T05:07:16.308Z,52832.00
2018-07-08T05:08:16.314Z,54880.00
2018-07-08T05:09:16.326Z,54048.00
2018-07-08T05:10:16.344Z,54272.00
2018-07-08T05:11:16.353Z,52544.00
2018-07-08T05:12:16.381Z,53216.00
2018-07-08T05:13:16.398Z,57920.00
2018-07-08T05:14:16.407Z,56960.00
2018-07-08T05:15:16.454Z,53504.00
2018-07-08T05:16:16.466Z,55552.00
2018-07-08T05:17:16.455Z,59744.00
2018-07-08T05:18:16.473Z,59392.00
2018-07-08T05:19:16.504Z,56672.00
2018-07-08T05:20:16.511Z,57088.00
2018-07-08T05:21:16.522Z,63616.00
2018-07-08T05:22:16.537Z,60640.00
2018-07-08T05:23:16.565Z,62208.00
2018-07-08T05:24:16.744Z,67168.00
2018-07-08T05:25:16.595Z,64672.00
2018-07-08T05:26:16.628Z,64192.00
2018-07-08T05:27:16.627Z,65216.00
2018-07-08T05:28:16.651Z,71040.00
2018-07-08T05:29:16.668Z,68096.00
2018-07-08T05:30:16.691Z,71360.00
2018-07-08T05:31:16.719Z,75072.00
2018-07-08T05:32:16.732Z,73248.00
2018-07-08T05:33:16.776Z,72864.00
2018-07-08T05:34:16.767Z,73216.00
2018-07-08T05:35:16.790Z,75296.00
2018-07-08T05:36:16.807Z,75744.00
2018-07-08T05:37:16.822Z,77728.00
2018-07-08T05:38:16.861Z,86240.00
2018-07-08T05:39:16.900Z,85024.00
2018-07-08T05:40:16.899Z,89856.00
2018-07-08T05:41:16.908Z,86976.00
2018-07-08T05:42:16.947Z,88864.00
2018-07-08T05:43:16.954Z,90816.00
2018-07-08T05:44:16.981Z,89952.00
2018-07-08T05:45:17.000Z,71584.00
2018-07-08T05:46:17.012Z,59872.00
2018-07-08T05:47:17.031Z,48928.00
2018-07-08T05:48:17.052Z,48384.00
2018-07-08T05:49:17.197Z,46016.00
2018-07-08T05:50:17.117Z,43232.00
2018-07-08T05:51:17.125Z,38592.00
2018-07-08T05:52:17.152Z,39520.00
2018-07-08T05:53:17.186Z,38336.00
2018-07-08T05:54:17.200Z,37344.00
2018-07-08T05:55:17.344Z,35648.00
2018-07-08T05:56:17.234Z,33856.00
2018-07-08T05:57:17.282Z,33408.00
2018-07-08T05:58:17.282Z,32992.00
2018-07-08T05:59:17.294Z,32992.00
2018-07-08T06:00:17.316Z,31968.00
2018-07-08T06:01:17.338Z,32832.00
2018-07-08T06:02:17.384Z,30976.00
2018-07-08T06:03:17.377Z,32096.00
2018-07-08T06:04:17.397Z,30848.00
2018-07-08T06:05:17.422Z,31008.00
2018-07-08T06:06:17.441Z,31040.00
2018-07-08T06:07:17.468Z,31168.00
2018-07-08T06:08:17.488Z,30976.00
2018-07-08T06:09:17.508Z,30560.00
2018-07-08T06:10:17.532Z,31904.00
2018-07-08T06:11:17.554Z,28672.00
2018-07-08T06:12:17.583Z,7940.00
2018-07-08T06:13:17.591Z,6680.00
2018-07-08T06:14:17.606Z,7764.00
2018-07-08T06:15:17.644Z,8388.00
2018-07-08T06:16:17.685Z,7344.00
2018-07-08T06:17:17.660Z,7092.00
2018-07-08T06:18:17.680Z,6260.00
2018-07-08T06:19:17.694Z,6304.00
2018-07-08T06:20:17.717Z,5780.00
2018-07-08T06:21:17.732Z,5732.00
2018-07-08T06:22:17.745Z,5368.00
2018-07-08T06:23:17.761Z,5148.00
2018-07-08T06:24:17.781Z,4840.00
2018-07-08T06:25:17.806Z,4524.00
2018-07-08T06:26:17.828Z,4240.00
2018-07-08T06:27:17.821Z,4048.00
2018-07-08T06:28:17.837Z,4176.00
2018-07-08T06:29:17.852Z,3980.00
2018-07-08T06:30:17.868Z,4036.00
2018-07-08T06:31:17.881Z,3920.00
2018-07-08T06:32:17.888Z,3816.00
2018-07-08T06:33:17.906Z,3800.00
2018-07-08T06:34:17.917Z,3688.00
2018-07-08T06:35:17.926Z,3644.00
2018-07-08T06:36:17.955Z,3628.00
2018-07-08T06:37:17.948Z,3692.00
2018-07-08T06:38:17.964Z,3716.00
2018-07-08T06:39:17.991Z,3616.00
2018-07-08T06:40:17.991Z,3564.00
2018-07-08T06:41:17.997Z,3536.00
2018-07-08T06:42:18.009Z,3452.00
2018-07-08T06:43:18.018Z,3500.00
2018-07-08T06:44:18.038Z,3508.00
2018-07-08T06:45:18.039Z,3472.00
2018-07-08T06:46:18.051Z,3384.00
2018-07-08T06:47:18.057Z,3496.00
2018-07-08T06:48:18.082Z,3424.00
2018-07-08T06:49:18.085Z,3424.00
2018-07-08T06:50:18.091Z,3288.00
2018-07-08T06:51:18.140Z,3464.00
2018-07-08T06:52:18.110Z,3140.00
2018-07-08T06:53:18.114Z,3400.00
2018-07-08T06:54:18.133Z,3224.00
2018-07-08T06:55:18.142Z,3288.00
2018-07-08T06:56:18.146Z,3276.00
2018-07-08T06:57:18.147Z,3292.00
2018-07-08T06:58:18.197Z,3292.00
2018-07-08T06:59:18.170Z,3296.00
2018-07-08T07:00:18.180Z,3316.00
2018-07-08T07:01:18.191Z,3256.00
2018-07-08T07:02:18.198Z,3284.00
2018-07-08T07:03:18.213Z,3260.00
2018-07-08T07:04:18.209Z,3196.00
2018-07-08T07:05:18.218Z,3124.00
2018-07-08T07:06:18.224Z,3188.00
2018-07-08T07:07:18.235Z,3180.00
2018-07-08T07:08:18.251Z,3160.00
2018-07-08T07:09:18.252Z,3144.00
2018-07-08T07:10:18.255Z,3116.00
2018-07-08T07:11:18.274Z,3108.00
2018-07-08T07:12:18.277Z,3092.00
2018-07-08T07:13:18.280Z,3064.00
2018-07-08T07:14:18.294Z,3028.00
2018-07-08T07:15:18.299Z,2952.00
2018-07-08T07:16:18.304Z,2940.00
2018-07-08T07:17:18.369Z,2964.00
2018-07-08T07:18:18.316Z,2948.00
2018-07-08T07:19:18.336Z,2888.00
2018-07-08T07:20:18.336Z,2856.00
2018-07-08T07:21:18.344Z,2948.00
2018-07-08T07:22:18.355Z,2904.00
2018-07-08T07:23:18.364Z,2892.00
2018-07-08T07:24:18.364Z,2796.00
2018-07-08T07:25:18.376Z,2724.00
2018-07-08T07:26:18.381Z,2788.00
2018-07-08T07:27:18.386Z,2724.00
2018-07-08T07:28:18.394Z,2780.00
2018-07-08T07:29:18.548Z,2796.00
2018-07-08T07:30:18.425Z,2632.00
2018-07-08T07:31:18.433Z,2788.00
2018-07-08T07:32:18.422Z,2752.00
2018-07-08T07:33:18.441Z,2740.00
2018-07-08T07:34:18.452Z,2656.00
2018-07-08T07:35:18.451Z,2684.00
2018-07-08T07:36:18.458Z,2692.00
2018-07-08T07:37:18.499Z,2684.00
2018-07-08T07:38:18.471Z,2680.00
2018-07-08T07:39:18.475Z,2628.00
2018-07-08T07:40:18.486Z,2648.00
2018-07-08T07:41:18.499Z,2464.00
2018-07-08T07:42:18.500Z,2504.00
2018-07-08T07:43:18.515Z,2576.00
2018-07-08T07:44:18.513Z,2548.00
2018-07-08T07:45:18.521Z,2532.00
2018-07-08T07:46:18.525Z,2564.00
2018-07-08T07:47:18.537Z,2520.00
2018-07-08T07:48:18.542Z,2604.00
2018-07-08T07:49:18.544Z,2480.00
2018-07-08T07:50:18.554Z,2536.00
2018-07-08T07:51:18.648Z,2476.00
2018-07-08T07:52:18.570Z,2412.00
2018-07-08T07:53:18.578Z,2432.00
2018-07-08T07:54:18.590Z,2396.00
2018-07-08T07:55:18.591Z,2380.00
2018-07-08T07:56:18.598Z,2376.00
2018-07-08T07:57:18.604Z,2372.00
2018-07-08T07:58:18.616Z,2164.00
2018-07-08T07:59:18.616Z,2356.00
2018-07-08T08:00:18.623Z,2400.00
2018-07-08T08:01:18.630Z,2308.00
2018-07-08T08:02:18.647Z,2308.00
2018-07-08T08:03:18.651Z,2296.00
2018-07-08T08:04:18.653Z,2300.00
2018-07-08T08:05:18.666Z,2288.00
2018-07-08T08:06:18.673Z,2272.00
2018-07-08T08:07:18.680Z,2328.00
2018-07-08T08:08:18.822Z,2240.00
2018-07-08T08:09:18.689Z,2236.00
2018-07-08T08:10:18.732Z,2208.00
2018-07-08T08:11:18.701Z,2216.00
2018-07-08T08:12:18.709Z,2180.00
2018-07-08T08:13:18.717Z,2200.00
2018-07-08T08:14:18.734Z,2184.00
2018-07-08T08:15:18.731Z,2172.00
2018-07-08T08:16:18.740Z,2168.00
2018-07-08T08:17:18.742Z,2120.00
2018-07-08T08:18:18.750Z,2100.00
2018-07-08T08:19:18.763Z,2044.00
2018-07-08T08:20:18.763Z,2120.00
2018-07-08T08:21:18.785Z,2040.00
2018-07-08T08:22:18.833Z,2088.00
2018-07-08T08:23:18.790Z,2064.00
2018-07-08T08:24:18.816Z,2072.00
2018-07-08T08:25:18.796Z,2068.00
2018-07-08T08:26:18.861Z,1916.00
2018-07-08T08:27:18.809Z,2052.00
2018-07-08T08:28:18.842Z,2028.00
2018-07-08T08:29:18.832Z,2072.00
2018-07-08T08:30:18.838Z,2044.00
2018-07-08T08:31:18.847Z,1980.00
2018-07-08T08:32:18.848Z,2020.00
2018-07-08T08:33:18.855Z,1988.00
2018-07-08T08:34:18.877Z,1948.00
2018-07-08T08:35:18.903Z,1940.00
2018-07-08T08:36:18.891Z,1944.00
2018-07-08T08:38:39.990Z,1948.00
2018-07-08T08:39:39.975Z,1916.00
2018-07-08T08:40:39.980Z,1932.00
2018-07-08T08:41:39.994Z,1932.00
2018-07-08T08:42:40.008Z,1880.00
2018-07-08T08:43:40.003Z,1868.00
2018-07-08T08:44:40.003Z,1868.00
2018-07-08T08:45:40.009Z,1816.00
2018-07-08T08:46:40.020Z,1920.00
2018-07-08T08:47:40.026Z,1812.00
2018-07-08T08:48:40.055Z,1860.00
2018-07-08T08:49:40.036Z,1852.00
2018-07-08T08:50:40.043Z,1796.00
2018-07-08T08:51:40.061Z,1816.00
2018-07-08T08:52:40.061Z,1788.00
2018-07-08T08:53:40.100Z,1704.00
2018-07-08T08:54:40.076Z,1784.00
2018-07-08T08:55:40.078Z,1760.00
2018-07-08T08:56:40.102Z,1740.00
2018-07-08T08:57:40.106Z,1732.00
2018-07-08T08:58:40.105Z,1768.00
2018-07-08T08:59:40.103Z,1744.00
2018-07-08T09:00:40.114Z,1668.00
2018-07-08T09:01:40.117Z,1708.00
2018-07-08T09:02:40.127Z,1712.00
2018-07-08T09:03:40.169Z,1752.00
2018-07-08T09:04:40.135Z,1780.00
2018-07-08T09:05:40.240Z,1724.00
2018-07-08T09:06:40.187Z,1684.00
2018-07-08T09:07:40.175Z,1664.00
2018-07-08T09:08:40.177Z,1672.00
2018-07-08T09:09:40.187Z,1700.00
2018-07-08T09:10:40.221Z,1608.00
2018-07-08T09:11:40.209Z,1676.00
2018-07-08T09:12:40.196Z,1688.00
2018-07-08T09:13:40.196Z,1656.00
2018-07-08T09:14:40.207Z,1640.00
2018-07-08T09:15:40.214Z,1628.00
2018-07-08T09:16:40.215Z,1616.00
2018-07-08T09:17:40.224Z,1616.00
2018-07-08T09:18:40.230Z,1608.00
2018-07-08T09:19:40.234Z,1612.00
2018-07-08T09:20:40.244Z,1580.00
2018-07-08T09:21:40.273Z,1568.00
2018-07-08T09:22:40.273Z,1596.00
2018-07-08T09:23:40.342Z,1532.00
2018-07-08T09:24:40.269Z,1692.00
2018-07-08T09:25:40.285Z,1652.00
2018-07-08T09:26:40.280Z,1624.00
2018-07-08T09:27:40.291Z,1712.00
2018-07-08T09:28:40.292Z,1696.00
2018-07-08T09:29:40.428Z,1616.00
2018-07-08T09:30:40.304Z,1592.00
2018-07-08T09:31:40.310Z,1620.00
2018-07-08T09:32:40.319Z,1620.00
2018-07-08T09:33:40.339Z,1596.00
2018-07-08T09:34:40.387Z,1556.00
2018-07-08T09:35:40.424Z,1576.00
2018-07-08T09:36:40.346Z,1568.00
2018-07-08T09:37:40.364Z,1536.00
2018-07-08T09:38:40.434Z,1592.00
2018-07-08T09:39:40.362Z,1584.00
2018-07-08T09:40:40.375Z,1536.00
2018-07-08T09:41:40.727Z,1552.00
2018-07-08T09:42:40.395Z,1560.00
2018-07-08T09:43:40.389Z,1588.00
2018-07-08T09:44:40.468Z,1544.00
2018-07-08T09:45:40.413Z,1532.00
2018-07-08T09:46:40.414Z,1540.00
2018-07-08T09:47:40.418Z,1448.00
2018-07-08T09:48:40.425Z,1504.00
2018-07-08T09:49:40.428Z,1532.00
2018-07-08T09:50:40.435Z,1484.00
2018-07-08T09:51:40.447Z,1516.00
2018-07-08T09:52:40.599Z,1532.00
2018-07-08T09:53:40.455Z,1456.00
2018-07-08T09:54:40.462Z,1456.00
2018-07-08T09:55:40.463Z,1532.00
2018-07-08T09:56:40.470Z,1484.00
2018-07-08T09:57:40.484Z,1508.00
2018-07-08T09:58:40.490Z,1472.00
2018-07-08T09:59:40.493Z,1452.00
2018-07-08T10:00:40.506Z,1468.00
2018-07-08T10:01:40.524Z,1532.00
2018-07-08T10:02:40.512Z,1444.00
2018-07-08T10:03:40.522Z,1476.00
2018-07-08T10:04:40.627Z,1440.00
2018-07-08T10:05:40.537Z,1420.00
2018-07-08T10:06:40.556Z,1420.00
2018-07-08T10:07:40.554Z,1428.00
2018-07-08T10:08:40.576Z,1540.00
2018-07-08T10:09:40.564Z,1416.00
2018-07-08T10:10:40.566Z,1400.00
2018-07-08T10:11:40.575Z,1408.00
2018-07-08T10:12:40.620Z,1384.00
2018-07-08T10:13:40.599Z,1404.00
2018-07-08T10:14:40.593Z,1392.00
2018-07-08T10:15:40.602Z,1388.00
2018-07-08T10:16:40.635Z,1360.00
2018-07-08T10:17:40.623Z,1376.00
2018-07-08T10:18:40.628Z,1456.00
2018-07-08T10:19:40.712Z,1392.00
2018-07-08T10:20:40.639Z,1348.00
2018-07-08T10:21:40.640Z,1388.00
2018-07-08T10:22:40.648Z,1336.00
2018-07-08T10:23:40.656Z,1372.00
2018-07-08T10:24:40.660Z,1376.00
2018-07-08T10:25:40.664Z,1324.00
2018-07-08T10:26:40.670Z,1360.00
2018-07-08T10:27:40.684Z,1340.00
2018-07-08T10:28:40.695Z,1320.00
2018-07-08T10:29:40.691Z,1340.00
2018-07-08T10:30:40.702Z,1292.00
2018-07-08T10:31:40.712Z,1304.00
2018-07-08T10:32:40.710Z,1324.00
2018-07-08T10:33:40.742Z,1292.00
2018-07-08T10:34:40.729Z,1268.00
2018-07-08T10:35:40.730Z,1288.00
2018-07-08T10:36:40.814Z,1256.00
2018-07-08T10:37:40.745Z,1312.00
2018-07-08T10:38:40.750Z,1044.00
2018-07-08T10:39:40.774Z,1308.00
2018-07-08T10:40:40.771Z,1256.00
2018-07-08T10:41:40.781Z,1248.00
2018-07-08T10:42:40.808Z,1264.00
2018-07-08T10:43:40.870Z,1228.00
2018-07-08T10:44:40.800Z,1268.00
2018-07-08T10:45:40.834Z,1232.00
2018-07-08T10:46:40.806Z,1240.00
2018-07-08T10:47:40.851Z,1248.00
2018-07-08T10:48:40.853Z,1232.00
2018-07-08T10:49:40.836Z,1196.00
2018-07-08T10:50:40.831Z,1232.00
2018-07-08T10:51:40.854Z,1180.00
2018-07-08T10:52:40.853Z,1212.00
2018-07-08T10:53:40.888Z,1216.00
2018-07-08T10:54:40.860Z,1192.00
2018-07-08T10:55:40.901Z,1188.00
2018-07-08T10:56:40.883Z,1208.00
2018-07-08T10:57:40.881Z,1196.00
2018-07-08T10:58:40.884Z,1196.00
2018-07-08T10:59:40.905Z,1208.00
2018-07-08T11:00:40.905Z,1184.00
2018-07-08T11:01:40.919Z,1196.00
2018-07-08T11:02:40.920Z,1176.00
2018-07-08T11:03:40.928Z,1168.00
2018-07-08T11:04:40.936Z,1156.00
2018-07-08T11:05:40.934Z,1184.00
2018-07-08T11:06:40.946Z,1196.00
2018-07-08T11:07:40.952Z,1176.00
2018-07-08T11:08:40.952Z,1180.00
2018-07-08T11:09:40.961Z,1224.00
2018-07-08T11:10:41.020Z,1220.00
2018-07-08T11:11:40.997Z,1184.00
2018-07-08T11:12:40.982Z,1164.00
2018-07-08T11:13:41.016Z,1140.00
2018-07-08T11:14:40.995Z,1164.00
2018-07-08T11:15:41.004Z,1152.00
2018-07-08T11:16:41.008Z,1148.00
2018-07-08T11:17:41.020Z,1144.00
2018-07-08T11:18:41.030Z,1148.00
2018-07-08T11:19:41.031Z,1168.00
2018-07-08T11:20:41.121Z,1136.00
2018-07-08T11:21:41.047Z,1184.00
2018-07-08T11:22:41.053Z,1124.00
2018-07-08T11:23:41.057Z,1132.00
2018-07-08T11:24:41.068Z,1092.00
2018-07-08T11:25:41.074Z,1112.00
2018-07-08T11:26:41.080Z,1116.00
2018-07-08T11:27:41.085Z,1104.00
2018-07-08T11:28:41.128Z,1100.00
2018-07-08T11:29:41.098Z,1072.00
2018-07-08T11:30:41.110Z,1112.00
2018-07-08T11:31:41.111Z,1096.00
2018-07-08T11:32:41.121Z,1100.00
2018-07-08T11:33:41.126Z,1104.00
2018-07-08T11:34:41.140Z,1136.00
2018-07-08T11:35:41.137Z,1116.00
2018-07-08T11:36:41.188Z,1100.00
2018-07-08T11:37:41.156Z,1120.00
2018-07-08T11:38:41.161Z,1080.00
2018-07-08T11:39:41.169Z,1080.00
2018-07-08T11:40:41.176Z,1064.00
2018-07-08T11:41:41.180Z,1084.00
2018-07-08T11:42:41.190Z,1068.00
2018-07-08T11:43:41.192Z,1072.00
2018-07-08T11:44:41.203Z,1060.00
2018-07-08T11:45:41.216Z,1076.00
2018-07-08T11:46:41.218Z,408.00
2018-07-08T11:47:41.221Z,1064.00
2018-07-08T11:48:41.227Z,1076.00
2018-07-08T11:49:41.245Z,1084.00
2018-07-08T11:50:41.243Z,1112.00
2018-07-08T11:51:41.250Z,1052.00
2018-07-08T11:52:41.260Z,1068.00
2018-07-08T11:53:41.267Z,1076.00
2018-07-08T11:54:41.270Z,1052.00
2018-07-08T11:55:41.291Z,1016.00
2018-07-08T11:56:41.287Z,1028.00
2018-07-08T11:57:41.295Z,1048.00
2018-07-08T11:58:41.315Z,1056.00
2018-07-08T11:59:41.305Z,1036.00
2018-07-08T12:00:41.320Z,1032.00
2018-07-08T12:01:41.326Z,1064.00
2018-07-08T12:02:41.327Z,1032.00
2018-07-08T12:03:41.333Z,1100.00
2018-07-08T12:04:41.343Z,1084.00
2018-07-08T12:05:41.348Z,1064.00
2018-07-08T12:06:41.355Z,1056.00
2018-07-08T12:07:41.364Z,1008.00
2018-07-08T12:08:41.370Z,1012.00
2018-07-08T12:09:41.379Z,1020.00
2018-07-08T12:10:41.381Z,1016.00
2018-07-08T12:11:41.388Z,1028.00
2018-07-08T12:12:41.394Z,1016.00
2018-07-08T12:13:41.404Z,1012.00
2018-07-08T12:14:41.408Z,1060.00
2018-07-08T12:15:41.417Z,1028.00
2018-07-08T12:16:41.424Z,1020.00
2018-07-08T12:17:41.428Z,1016.00
2018-07-08T12:18:41.439Z,996.00
2018-07-08T12:19:41.446Z,1036.00
2018-07-08T12:20:41.454Z,1028.00
2018-07-08T12:21:41.456Z,1036.00
2018-07-08T12:22:41.463Z,1000.00
2018-07-08T12:23:41.468Z,1000.00
2018-07-08T12:24:41.475Z,1016.00
2018-07-08T12:25:41.486Z,980.00
2018-07-08T12:26:41.490Z,984.00
2018-07-08T12:27:41.514Z,984.00
2018-07-08T12:28:41.518Z,1004.00
2018-07-08T12:29:41.518Z,988.00
2018-07-08T12:30:41.532Z,992.00
2018-07-08T12:31:41.527Z,1000.00
2018-07-08T12:32:41.535Z,980.00
2018-07-08T12:33:41.543Z,984.00
2018-07-08T12:34:41.552Z,1048.00
2018-07-08T12:35:41.555Z,1016.00
2018-07-08T12:36:41.604Z,1004.00
2018-07-08T12:37:41.570Z,988.00
2018-07-08T12:38:41.574Z,1008.00
2018-07-08T12:39:41.584Z,996.00
2018-07-08T12:40:41.592Z,1012.00
2018-07-08T12:41:41.600Z,972.00
2018-07-08T12:42:41.614Z,980.00
2018-07-08T12:43:41.615Z,992.00
2018-07-08T12:44:41.786Z,964.00
2018-07-08T12:45:41.630Z,976.00